Time;durP1;ratioP1;P1;durP2;ratioP2;P2;SDS_P1;SDS_P2;PMS_P1;PMS_P2;Temp;Humidity;BMP_temperature;BMP_pressure;BME280_temperature;BME280_humidity;BME280_pressure;Samples;Min_cycle;Max_cycle;Signal;HPM_P1;HPM_P2
2024/01/25 00:01:21;;;;;;;18.53;5.00;;;;;;;;;;5029145;28;20461;-88
2024/01/25 00:03:48;;;;;;;23.33;5.33;;;;;;;;;;5037303;28;20490;-86
2024/01/25 00:06:25;;;;;;;28.60;6.57;;;;;;;;;;5028702;28;20473;-88
2024/01/25 00:08:55;;;;;;;25.87;5.30;;;;;;;;;;5029498;28;20417;-88
2024/01/25 00:11:37;;;;;;;24.10;5.30;;;;;;;;;;5038175;28;20496;-86
2024/01/25 00:14:06;;;;;;;16.90;5.73;;;;;;;;;;5056819;28;20529;-87
2024/01/25 00:16:33;;;;;;;16.60;5.20;;;;;;;;;;5052654;28;20453;-86
2024/01/25 00:19:00;;;;;;;24.53;4.63;;;;;;;;;;5073241;28;20433;-84
2024/01/25 00:21:30;;;;;;;18.07;5.73;;;;;;;;;;5051916;28;20462;-87
2024/01/25 00:24:05;;;;;;;19.00;5.37;;;;;;;;;;5027678;28;20446;-86
2024/01/25 00:26:34;;;;;;;27.00;6.87;;;;;;;;;;5025724;28;20457;-85
2024/01/25 00:29:02;;;;;;;25.33;5.80;;;;;;;;;;5026603;28;20446;-85
2024/01/25 00:31:30;;;;;;;21.23;6.07;;;;;;;;;;5012466;28;20485;-86
2024/01/25 00:33:58;;;;;;;20.23;5.10;;;;;;;;;;5034975;28;20446;-85
2024/01/25 00:36:26;;;;;;;30.40;6.00;;;;;;;;;;5012337;28;21372;-85
2024/01/25 00:39:03;;;;;;;20.17;5.20;;;;;;;;;;5026835;28;20462;-85
2024/01/25 00:41:33;;;;;;;20.57;5.77;;;;;;;;;;5039878;28;20596;-87
2024/01/25 00:44:01;;;;;;;14.67;5.50;;;;;;;;;;5035217;28;20459;-85
2024/01/25 00:46:34;;;;;;;20.93;5.00;;;;;;;;;;5026201;28;20446;-88
2024/01/25 00:49:05;;;;;;;23.43;5.47;;;;;;;;;;5027946;28;20431;-86
2024/01/25 00:51:33;;;;;;;16.63;4.33;;;;;;;;;;5039924;28;20926;-87
2024/01/25 00:54:01;;;;;;;30.10;6.83;;;;;;;;;;5022875;28;20513;-86
2024/01/25 00:56:29;;;;;;;21.60;5.93;;;;;;;;;;5045878;28;20525;-87
2024/01/25 00:58:56;;;;;;;18.43;4.73;;;;;;;;;;5020832;28;20960;-86
2024/01/25 01:01:26;;;;;;;25.23;5.97;;;;;;;;;;5013189;28;20461;-86
2024/01/25 01:03:55;;;;;;;26.10;5.50;;;;;;;;;;5023020;28;20490;-86
2024/01/25 01:06:25;;;;;;;30.97;5.63;;;;;;;;;;5018131;28;20474;-85
2024/01/25 01:08:54;;;;;;;23.43;5.40;;;;;;;;;;5029194;28;20456;-86
2024/01/25 01:11:24;;;;;;;22.53;5.97;;;;;;;;;;5020244;28;20461;-84
2024/01/25 01:13:55;;;;;;;14.47;4.40;;;;;;;;;;5027810;28;20506;-86
2024/01/25 01:16:22;;;;;;;20.53;5.27;;;;;;;;;;5039129;28;20498;-87
2024/01/25 01:18:54;;;;;;;18.53;4.97;;;;;;;;;;5046158;28;20474;-86
2024/01/25 01:21:26;;;;;;;22.07;5.20;;;;;;;;;;5032324;28;20429;-87
2024/01/25 01:23:59;;;;;;;18.73;5.30;;;;;;;;;;5021168;28;20446;-88
2024/01/25 01:26:29;;;;;;;16.37;4.83;;;;;;;;;;5021719;28;20479;-87
2024/01/25 01:28:59;;;;;;;19.43;4.93;;;;;;;;;;5020865;28;20458;-88
2024/01/25 01:31:28;;;;;;;22.50;5.43;;;;;;;;;;5044871;28;20472;-86
2024/01/25 01:33:58;;;;;;;21.07;5.50;;;;;;;;;;5048560;28;20897;-88
2024/01/25 01:36:34;;;;;;;16.73;4.80;;;;;;;;;;5018466;28;20485;-86
2024/01/25 01:39:06;;;;;;;21.47;5.07;;;;;;;;;;5032031;28;20464;-86
2024/01/25 01:41:44;;;;;;;21.80;5.60;;;;;;;;;;5031996;28;20469;-86
2024/01/25 01:44:13;;;;;;;19.70;6.10;;;;;;;;;;5038565;28;20442;-86
2024/01/25 01:46:41;;;;;;;20.40;4.43;;;;;;;;;;5020080;28;20471;-86
2024/01/25 01:49:15;;;;;;;24.10;5.30;;;;;;;;;;5041988;28;20467;-85
2024/01/25 01:51:49;;;;;;;23.53;7.33;;;;;;;;;;5040186;28;20467;-86
2024/01/25 01:54:18;;;;;;;18.33;4.90;;;;;;;;;;5028706;28;20451;-86
2024/01/25 01:56:46;;;;;;;27.80;6.73;;;;;;;;;;5029255;28;20459;-85
2024/01/25 01:59:13;;;;;;;21.70;5.40;;;;;;;;;;5031077;28;20449;-86
2024/01/25 02:01:41;;;;;;;21.70;4.83;;;;;;;;;;5040333;28;20481;-87
2024/01/25 02:04:09;;;;;;;23.37;7.63;;;;;;;;;;5022276;28;20970;-87
2024/01/25 02:06:40;;;;;;;18.63;5.80;;;;;;;;;;5035441;28;20992;-85
2024/01/25 02:09:10;;;;;;;14.80;4.50;;;;;;;;;;5022182;28;20461;-86
2024/01/25 02:11:42;;;;;;;24.07;5.77;;;;;;;;;;5013802;28;20488;-86
2024/01/25 02:14:11;;;;;;;22.40;4.93;;;;;;;;;;5021047;28;20477;-87
2024/01/25 02:16:46;;;;;;;27.87;6.30;;;;;;;;;;5026676;28;20466;-89
2024/01/25 02:19:13;;;;;;;14.53;4.47;;;;;;;;;;5039483;28;20813;-86
2024/01/25 02:21:42;;;;;;;22.70;5.10;;;;;;;;;;5025809;28;20578;-88
2024/01/25 02:24:09;;;;;;;24.30;5.40;;;;;;;;;;5022455;28;20458;-86
2024/01/25 02:26:36;;;;;;;23.50;5.37;;;;;;;;;;5018051;28;20485;-88
2024/01/25 02:29:08;;;;;;;16.30;4.80;;;;;;;;;;5031159;28;20445;-86
2024/01/25 02:31:35;;;;;;;19.83;4.93;;;;;;;;;;5024133;28;20500;-87
2024/01/25 02:34:04;;;;;;;18.73;4.97;;;;;;;;;;5035121;28;20449;-86
2024/01/25 02:36:37;;;;;;;27.70;5.30;;;;;;;;;;5034551;28;20477;-87
2024/01/25 02:39:06;;;;;;;18.50;6.10;;;;;;;;;;5027289;28;20954;-87
2024/01/25 02:41:33;;;;;;;23.50;4.80;;;;;;;;;;5040612;28;20446;-86
2024/01/25 02:44:04;;;;;;;23.33;6.20;;;;;;;;;;5038334;28;20509;-84
2024/01/25 02:46:35;;;;;;;16.73;5.50;;;;;;;;;;5028522;28;20493;-87
2024/01/25 02:49:08;;;;;;;21.60;5.20;;;;;;;;;;5018299;28;20446;-87
2024/01/25 02:51:35;;;;;;;19.57;4.87;;;;;;;;;;5014666;28;20461;-86
2024/01/25 02:54:02;;;;;;;16.10;5.00;;;;;;;;;;5046203;28;20453;-87
2024/01/25 02:56:34;;;;;;;16.33;5.40;;;;;;;;;;5022650;28;20483;-86
2024/01/25 02:59:02;;;;;;;19.27;5.63;;;;;;;;;;5016691;28;20554;-87
2024/01/25 03:01:37;;;;;;;19.97;4.83;;;;;;;;;;5024940;28;20481;-86
2024/01/25 03:04:06;;;;;;;19.50;5.57;;;;;;;;;;5023478;28;20486;-87
2024/01/25 03:06:36;;;;;;;22.77;5.53;;;;;;;;;;5042580;28;20886;-88
2024/01/25 03:09:06;;;;;;;19.10;5.60;;;;;;;;;;5026594;28;21341;-86
2024/01/25 03:11:37;;;;;;;20.43;5.80;;;;;;;;;;5041335;28;20482;-86
2024/01/25 03:14:04;;;;;;;23.73;6.50;;;;;;;;;;5045661;28;20485;-86
2024/01/25 03:16:31;;;;;;;18.17;4.80;;;;;;;;;;5026871;28;20478;-87
2024/01/25 03:19:02;;;;;;;22.80;6.30;;;;;;;;;;5023500;28;20450;-87
2024/01/25 03:21:29;;;;;;;18.60;4.23;;;;;;;;;;5043005;28;20425;-84
2024/01/25 03:23:56;;;;;;;20.50;5.80;;;;;;;;;;5044205;28;20615;-85
2024/01/25 03:26:30;;;;;;;16.13;6.27;;;;;;;;;;5029334;28;20465;-85
2024/01/25 03:29:03;;;;;;;20.93;5.50;;;;;;;;;;5022738;28;20466;-87
2024/01/25 03:31:30;;;;;;;21.10;4.90;;;;;;;;;;5057984;28;20444;-87
2024/01/25 03:33:57;;;;;;;21.40;5.50;;;;;;;;;;5026126;28;20511;-86
2024/01/25 03:36:27;;;;;;;27.53;5.90;;;;;;;;;;5023530;28;20481;-87
2024/01/25 03:38:54;;;;;;;16.87;6.20;;;;;;;;;;5018562;28;20989;-86
2024/01/25 03:41:23;;;;;;;21.97;5.20;;;;;;;;;;5024490;28;20449;-86
2024/01/25 03:43:51;;;;;;;22.87;5.83;;;;;;;;;;5023017;28;20485;-85
2024/01/25 03:46:19;;;;;;;24.43;5.57;;;;;;;;;;5019095;28;20557;-86
2024/01/25 03:48:46;;;;;;;17.97;4.70;;;;;;;;;;5033621;28;20540;-85
2024/01/25 03:51:16;;;;;;;21.00;5.60;;;;;;;;;;5010578;28;20465;-84
2024/01/25 03:53:46;;;;;;;23.23;5.03;;;;;;;;;;5032643;28;20811;-86
2024/01/25 03:56:13;;;;;;;15.70;4.50;;;;;;;;;;5003317;28;20488;-84
2024/01/25 03:58:40;;;;;;;23.67;7.37;;;;;;;;;;5009223;28;20454;-86
2024/01/25 04:01:09;;;;;;;19.53;5.30;;;;;;;;;;5018521;28;20553;-87
2024/01/25 04:03:36;;;;;;;26.07;5.43;;;;;;;;;;5020346;28;20508;-87
2024/01/25 04:06:07;;;;;;;26.13;5.50;;;;;;;;;;5030971;28;20533;-87
2024/01/25 04:08:37;;;;;;;27.40;6.37;;;;;;;;;;5014650;28;20885;-86
2024/01/25 04:11:09;;;;;;;17.30;6.00;;;;;;;;;;5024899;28;20456;-86
2024/01/25 04:13:38;;;;;;;23.40;5.97;;;;;;;;;;5036456;28;20489;-86
2024/01/25 04:16:08;;;;;;;20.50;6.10;;;;;;;;;;5016467;28;20478;-86
2024/01/25 04:18:36;;;;;;;29.90;6.33;;;;;;;;;;5035433;28;20418;-86
2024/01/25 04:21:05;;;;;;;25.13;6.43;;;;;;;;;;5034340;28;20442;-85
2024/01/25 04:23:32;;;;;;;21.13;5.70;;;;;;;;;;5034341;28;20542;-86
2024/01/25 04:26:00;;;;;;;20.60;5.03;;;;;;;;;;5018314;28;20481;-86
2024/01/25 04:28:27;;;;;;;20.20;5.03;;;;;;;;;;5039892;28;21021;-86
2024/01/25 04:30:54;;;;;;;19.17;5.60;;;;;;;;;;5024919;28;20442;-87
2024/01/25 04:33:21;;;;;;;19.13;5.60;;;;;;;;;;5036817;28;20430;-84
2024/01/25 04:35:51;;;;;;;21.93;6.30;;;;;;;;;;5026245;28;20469;-87
2024/01/25 04:38:21;;;;;;;17.00;5.57;;;;;;;;;;5019308;28;20470;-87
2024/01/25 04:40:48;;;;;;;22.03;6.50;;;;;;;;;;5020152;28;20447;-87
2024/01/25 04:43:18;;;;;;;24.43;6.20;;;;;;;;;;5037806;28;20470;-86
2024/01/25 04:45:45;;;;;;;22.43;5.97;;;;;;;;;;5036761;28;20450;-84
2024/01/25 04:48:17;;;;;;;20.97;5.73;;;;;;;;;;5011195;28;20465;-84
2024/01/25 04:50:49;;;;;;;17.47;5.80;;;;;;;;;;5018044;28;20461;-84
2024/01/25 04:53:21;;;;;;;21.97;5.43;;;;;;;;;;5029883;28;20453;-84
2024/01/25 04:55:48;;;;;;;19.80;6.60;;;;;;;;;;5017669;28;20504;-89
2024/01/25 04:58:15;;;;;;;25.30;5.57;;;;;;;;;;5036343;28;20457;-89
2024/01/25 05:00:42;;;;;;;21.07;5.80;;;;;;;;;;5038121;28;20441;-88
2024/01/25 05:03:10;;;;;;;24.03;6.27;;;;;;;;;;5047629;28;20476;-88
2024/01/25 05:05:40;;;;;;;25.17;4.90;;;;;;;;;;5033922;28;20448;-88
2024/01/25 05:08:08;;;;;;;24.37;6.40;;;;;;;;;;5033491;28;20453;-86
2024/01/25 05:10:35;;;;;;;24.17;5.40;;;;;;;;;;5039245;28;20458;-87
2024/01/25 05:13:09;;;;;;;22.27;5.80;;;;;;;;;;5014222;28;20446;-86
2024/01/25 05:15:39;;;;;;;18.93;5.13;;;;;;;;;;5013055;28;20463;-87
2024/01/25 05:18:09;;;;;;;20.47;5.43;;;;;;;;;;5034053;28;20449;-85
2024/01/25 05:20:37;;;;;;;21.17;5.10;;;;;;;;;;5041907;28;20457;-86
2024/01/25 05:23:05;;;;;;;17.17;5.63;;;;;;;;;;5017531;28;20506;-87
2024/01/25 05:25:38;;;;;;;15.83;5.07;;;;;;;;;;5021803;28;20464;-88
2024/01/25 05:28:05;;;;;;;23.60;5.20;;;;;;;;;;5033941;28;20460;-88
2024/01/25 05:30:33;;;;;;;27.00;6.00;;;;;;;;;;5043690;28;20497;-87
2024/01/25 05:33:00;;;;;;;12.47;4.37;;;;;;;;;;5047463;28;20570;-86
2024/01/25 05:35:28;;;;;;;24.70;5.93;;;;;;;;;;5019234;28;20572;-86
2024/01/25 05:37:58;;;;;;;22.90;6.07;;;;;;;;;;5011682;28;20449;-87
2024/01/25 05:40:28;;;;;;;17.20;4.80;;;;;;;;;;5015899;28;20471;-86
2024/01/25 05:42:55;;;;;;;20.00;5.00;;;;;;;;;;5018377;28;20485;-86
2024/01/25 05:45:24;;;;;;;20.23;4.63;;;;;;;;;;5021119;28;20500;-87
2024/01/25 05:47:51;;;;;;;22.53;5.57;;;;;;;;;;5017498;28;20461;-87
2024/01/25 05:50:21;;;;;;;26.10;5.60;;;;;;;;;;5010414;28;20434;-87
2024/01/25 05:52:49;;;;;;;17.50;5.17;;;;;;;;;;5019796;28;20482;-87
2024/01/25 05:55:18;;;;;;;16.40;4.93;;;;;;;;;;5035900;28;20476;-87
2024/01/25 05:57:51;;;;;;;28.20;6.70;;;;;;;;;;5022299;28;20533;-86
2024/01/25 06:00:20;;;;;;;21.60;5.80;;;;;;;;;;5024922;28;20423;-86
2024/01/25 06:02:48;;;;;;;25.23;6.80;;;;;;;;;;5031049;28;20496;-85
2024/01/25 06:05:15;;;;;;;21.27;5.73;;;;;;;;;;5049011;28;20442;-85
2024/01/25 06:07:43;;;;;;;18.10;5.53;;;;;;;;;;5025130;28;20465;-86
2024/01/25 06:10:10;;;;;;;25.60;5.90;;;;;;;;;;5014148;28;20457;-89
2024/01/25 06:12:38;;;;;;;23.13;5.23;;;;;;;;;;5031737;28;20489;-86
2024/01/25 06:15:05;;;;;;;25.27;6.70;;;;;;;;;;5021477;28;20458;-87
2024/01/25 06:17:33;;;;;;;28.10;7.70;;;;;;;;;;5016892;28;20524;-86
2024/01/25 06:20:00;;;;;;;21.60;7.03;;;;;;;;;;5020971;28;20548;-85
2024/01/25 06:22:27;;;;;;;37.03;8.80;;;;;;;;;;5037413;28;20488;-86
2024/01/25 06:24:54;;;;;;;21.13;5.40;;;;;;;;;;5020552;28;20489;-89
2024/01/25 06:27:22;;;;;;;28.63;13.03;;;;;;;;;;5014842;28;20481;-87
2024/01/25 06:29:49;;;;;;;25.70;7.07;;;;;;;;;;5036762;28;20886;-87
2024/01/25 06:32:16;;;;;;;14.00;4.50;;;;;;;;;;5023329;28;20453;-85
2024/01/25 06:34:48;;;;;;;13.50;5.10;;;;;;;;;;5032106;28;20508;-84
2024/01/25 06:37:18;;;;;;;19.27;5.40;;;;;;;;;;5041369;28;20493;-83
2024/01/25 06:39:46;;;;;;;23.07;5.63;;;;;;;;;;5025884;28;20881;-86
2024/01/25 06:42:16;;;;;;;19.93;5.60;;;;;;;;;;5023686;28;20487;-89
2024/01/25 06:44:46;;;;;;;28.20;5.53;;;;;;;;;;5030118;28;20473;-86
2024/01/25 06:47:19;;;;;;;20.03;5.40;;;;;;;;;;5026127;28;20475;-86
2024/01/25 06:49:51;;;;;;;20.50;5.60;;;;;;;;;;5029548;28;20449;-88
2024/01/25 06:52:19;;;;;;;19.10;5.70;;;;;;;;;;5015031;28;20462;-86
2024/01/25 06:54:49;;;;;;;25.83;5.43;;;;;;;;;;5043332;28;20466;-86
2024/01/25 06:57:16;;;;;;;20.80;5.43;;;;;;;;;;5027272;28;20485;-86
2024/01/25 06:59:47;;;;;;;19.23;5.83;;;;;;;;;;5042431;28;20489;-87
2024/01/25 07:02:17;;;;;;;16.40;5.83;;;;;;;;;;5028203;28;20473;-88
2024/01/25 07:04:47;;;;;;;27.17;6.43;;;;;;;;;;5047858;28;20481;-88
2024/01/25 07:07:17;;;;;;;23.50;7.07;;;;;;;;;;5036027;28;20568;-87
2024/01/25 07:09:45;;;;;;;17.90;5.33;;;;;;;;;;5031495;28;20980;-86
2024/01/25 07:12:15;;;;;;;24.67;5.17;;;;;;;;;;5021124;28;20458;-86
2024/01/25 07:14:45;;;;;;;27.63;5.37;;;;;;;;;;5043986;28;20543;-84
2024/01/25 07:17:18;;;;;;;19.23;5.67;;;;;;;;;;5035691;28;20494;-88
2024/01/25 07:19:47;;;;;;;19.10;5.77;;;;;;;;;;5037556;28;20562;-86
2024/01/25 07:22:18;;;;;;;31.97;6.50;;;;;;;;;;5040009;28;20449;-86
2024/01/25 07:24:50;;;;;;;17.37;5.70;;;;;;;;;;5026851;28;20485;-87
2024/01/25 07:27:17;;;;;;;26.63;8.47;;;;;;;;;;5039365;28;20527;-87
2024/01/25 07:29:47;;;;;;;31.57;7.27;;;;;;;;;;5020158;28;20488;-84
2024/01/25 07:32:18;;;;;;;26.57;5.87;;;;;;;;;;5012738;28;20442;-86
2024/01/25 07:34:45;;;;;;;18.90;6.00;;;;;;;;;;5017152;28;20548;-85
2024/01/25 07:37:14;;;;;;;22.90;5.60;;;;;;;;;;5035997;28;20488;-86
2024/01/25 07:39:41;;;;;;;20.43;6.03;;;;;;;;;;5014597;28;20458;-87
2024/01/25 07:42:17;;;;;;;16.97;5.07;;;;;;;;;;5021771;28;20453;-86
2024/01/25 07:44:48;;;;;;;15.40;5.03;;;;;;;;;;5008653;28;20487;-86
2024/01/25 07:47:16;;;;;;;26.00;6.60;;;;;;;;;;5037613;28;21011;-86
2024/01/25 07:49:43;;;;;;;26.37;6.43;;;;;;;;;;5040081;28;22108;-87
2024/01/25 07:52:14;;;;;;;17.37;6.80;;;;;;;;;;5043354;28;20436;-87
2024/01/25 07:54:45;;;;;;;24.30;7.23;;;;;;;;;;5036146;28;20461;-87
2024/01/25 07:57:16;;;;;;;18.13;6.90;;;;;;;;;;5035215;28;20576;-86
2024/01/25 07:59:43;;;;;;;24.53;7.03;;;;;;;;;;5015669;28;20461;-87
2024/01/25 08:02:10;;;;;;;12.27;5.70;;;;;;;;;;5028183;28;20456;-87
2024/01/25 08:04:41;;;;;;;19.43;6.90;;;;;;;;;;5023355;28;20542;-85
2024/01/25 08:07:08;;;;;;;19.07;6.40;;;;;;;;;;5028550;28;20555;-86
2024/01/25 08:09:39;;;;;;;22.00;8.27;;;;;;;;;;5018281;28;20451;-88
2024/01/25 08:12:08;;;;;;;22.13;5.90;;;;;;;;;;5042568;28;20454;-85
2024/01/25 08:14:45;;;;;;;21.60;6.80;;;;;;;;;;5038831;28;20469;-87
2024/01/25 08:17:15;;;;;;;16.30;6.90;;;;;;;;;;5011769;28;20545;-88
2024/01/25 08:19:59;;;;;;;23.53;6.07;;;;;;;;;;5026901;28;20492;-87
2024/01/25 08:22:31;;;;;;;25.57;7.60;;;;;;;;;;5026890;28;20858;-87
2024/01/25 08:25:06;;;;;;;22.83;7.13;;;;;;;;;;5044899;28;20512;-84
2024/01/25 08:27:37;;;;;;;24.23;9.23;;;;;;;;;;5025422;28;20470;-85
2024/01/25 08:30:05;;;;;;;22.03;7.47;;;;;;;;;;5014858;28;20454;-88
2024/01/25 08:32:37;;;;;;;22.57;8.03;;;;;;;;;;5025077;28;20477;-86
2024/01/25 08:35:08;;;;;;;21.90;8.30;;;;;;;;;;5018692;28;20446;-86
2024/01/25 08:37:37;;;;;;;19.93;6.97;;;;;;;;;;5025818;28;20480;-85
2024/01/25 08:40:10;;;;;;;28.53;7.90;;;;;;;;;;5007268;28;20874;-86
2024/01/25 08:42:41;;;;;;;28.83;8.50;;;;;;;;;;5022067;28;20450;-87
2024/01/25 08:45:10;;;;;;;23.90;8.20;;;;;;;;;;5022085;28;20557;-86
2024/01/25 08:47:40;;;;;;;20.63;7.27;;;;;;;;;;5041019;28;20524;-87
2024/01/25 08:50:11;;;;;;;26.10;8.20;;;;;;;;;;5020072;28;20505;-88
2024/01/25 08:52:41;;;;;;;17.13;7.37;;;;;;;;;;5027793;28;20457;-88
2024/01/25 08:55:11;;;;;;;25.20;8.43;;;;;;;;;;5036975;28;20448;-86
2024/01/25 08:57:43;;;;;;;30.93;8.33;;;;;;;;;;5026667;28;20584;-86
2024/01/25 09:00:10;;;;;;;17.53;7.90;;;;;;;;;;5043564;28;20454;-87
2024/01/25 09:02:40;;;;;;;26.53;7.87;;;;;;;;;;5028701;28;20441;-86
2024/01/25 09:05:16;;;;;;;27.43;9.00;;;;;;;;;;5040283;28;20485;-86
2024/01/25 09:07:43;;;;;;;23.33;7.93;;;;;;;;;;5039721;28;20463;-86
2024/01/25 09:10:12;;;;;;;18.33;6.83;;;;;;;;;;5035697;28;20515;-87
2024/01/25 09:12:41;;;;;;;19.47;6.47;;;;;;;;;;5033121;28;20481;-87
2024/01/25 09:15:14;;;;;;;22.50;8.73;;;;;;;;;;5019655;28;20795;-88
2024/01/25 09:17:45;;;;;;;24.23;7.53;;;;;;;;;;5019759;28;20473;-87
2024/01/25 09:20:21;;;;;;;20.80;7.00;;;;;;;;;;5033351;28;20505;-86
2024/01/25 09:22:59;;;;;;;29.63;8.93;;;;;;;;;;5027532;28;20446;-87
2024/01/25 09:25:31;;;;;;;26.93;7.60;;;;;;;;;;5024398;28;20568;-87
2024/01/25 09:28:05;;;;;;;28.63;8.60;;;;;;;;;;5018847;28;20461;-86
2024/01/25 09:30:36;;;;;;;22.33;7.80;;;;;;;;;;5016664;28;20518;-86
2024/01/25 09:33:05;;;;;;;21.77;8.70;;;;;;;;;;5021136;28;20435;-87
2024/01/25 09:35:49;;;;;;;24.70;10.17;;;;;;;;;;5041191;28;20450;-86
2024/01/25 09:38:17;;;;;;;27.53;8.97;;;;;;;;;;5024176;28;20477;-86
2024/01/25 09:40:52;;;;;;;19.60;8.63;;;;;;;;;;5020352;28;20469;-86
2024/01/25 09:43:22;;;;;;;27.10;8.87;;;;;;;;;;5025625;28;20465;-86
2024/01/25 09:45:56;;;;;;;22.80;8.33;;;;;;;;;;5034219;28;20473;-87
2024/01/25 09:48:31;;;;;;;31.07;10.80;;;;;;;;;;5024308;28;20454;-85
2024/01/25 09:51:02;;;;;;;18.73;8.63;;;;;;;;;;5020586;28;20450;-87
2024/01/25 09:53:37;;;;;;;22.10;8.00;;;;;;;;;;5034424;28;20457;-86
2024/01/25 09:56:12;;;;;;;23.80;8.37;;;;;;;;;;5006266;28;20541;-86
2024/01/25 09:58:54;;;;;;;25.80;9.23;;;;;;;;;;5021731;28;20462;-87
2024/01/25 10:01:22;;;;;;;29.07;9.80;;;;;;;;;;5043284;28;20434;-85
2024/01/25 10:03:58;;;;;;;25.80;8.53;;;;;;;;;;5024335;28;20442;-87
2024/01/25 10:06:29;;;;;;;22.30;8.90;;;;;;;;;;5030782;28;20492;-86
2024/01/25 10:09:04;;;;;;;25.20;9.20;;;;;;;;;;5045806;28;20533;-86
2024/01/25 10:11:38;;;;;;;30.53;9.53;;;;;;;;;;5036628;28;20481;-86
2024/01/25 10:14:11;;;;;;;27.57;9.40;;;;;;;;;;5027428;28;20499;-86
2024/01/25 10:16:38;;;;;;;25.13;9.60;;;;;;;;;;5034574;28;20477;-85
2024/01/25 10:19:09;;;;;;;29.37;8.63;;;;;;;;;;5038982;28;20485;-86
2024/01/25 10:21:44;;;;;;;19.93;9.03;;;;;;;;;;5018361;28;20453;-86
2024/01/25 10:24:14;;;;;;;21.50;8.23;;;;;;;;;;5025961;28;20528;-85
2024/01/25 10:26:44;;;;;;;24.87;9.10;;;;;;;;;;5038186;28;20470;-86
2024/01/25 10:29:11;;;;;;;16.90;7.20;;;;;;;;;;5035354;28;20442;-86
2024/01/25 10:31:42;;;;;;;21.17;7.47;;;;;;;;;;5052035;28;20461;-86
2024/01/25 10:37:08;;;;;;;23.83;8.30;;;;;;;;;;5058308;28;20488;-87
2024/01/25 10:39:38;;;;;;;20.20;8.37;;;;;;;;;;5049907;28;20458;-87
2024/01/25 10:42:16;;;;;;;22.03;8.10;;;;;;;;;;5043323;28;20462;-85
2024/01/25 10:44:49;;;;;;;18.70;7.50;;;;;;;;;;5040436;28;20491;-87
2024/01/25 10:47:20;;;;;;;24.77;7.80;;;;;;;;;;5031625;28;20443;-85
2024/01/25 10:49:56;;;;;;;18.00;8.83;;;;;;;;;;5032769;28;20458;-87
2024/01/25 10:52:25;;;;;;;26.00;8.90;;;;;;;;;;5052449;28;20442;-87
2024/01/25 10:54:53;;;;;;;18.67;7.37;;;;;;;;;;5041865;28;20829;-85
2024/01/25 10:57:20;;;;;;;22.63;7.83;;;;;;;;;;5033183;28;20549;-87
2024/01/25 10:59:50;;;;;;;28.30;9.43;;;;;;;;;;5050685;28;20463;-85
2024/01/25 11:02:21;;;;;;;29.60;8.73;;;;;;;;;;5038808;28;20462;-85
2024/01/25 11:04:55;;;;;;;26.63;9.23;;;;;;;;;;5024305;28;20486;-85
2024/01/25 11:07:23;;;;;;;21.17;7.93;;;;;;;;;;5032580;28;20475;-86
2024/01/25 11:09:54;;;;;;;27.33;10.17;;;;;;;;;;5040172;28;20561;-87
2024/01/25 11:12:21;;;;;;;25.13;8.43;;;;;;;;;;5044269;28;20469;-88
2024/01/25 11:14:55;;;;;;;22.50;9.40;;;;;;;;;;5025176;28;20526;-85
2024/01/25 11:17:24;;;;;;;25.50;8.63;;;;;;;;;;5005886;28;20501;-86
2024/01/25 11:19:54;;;;;;;17.97;7.30;;;;;;;;;;5020007;28;20435;-86
2024/01/25 11:22:34;;;;;;;25.53;7.93;;;;;;;;;;5044443;28;20434;-86
2024/01/25 11:25:11;;;;;;;22.00;7.37;;;;;;;;;;5052908;28;20491;-88
2024/01/25 11:27:41;;;;;;;20.90;8.27;;;;;;;;;;5036793;28;20516;-83
2024/01/25 11:30:10;;;;;;;18.40;7.83;;;;;;;;;;5055263;28;20443;-85
2024/01/25 11:32:42;;;;;;;21.70;8.17;;;;;;;;;;5065895;28;20441;-86
2024/01/25 11:35:16;;;;;;;16.77;7.20;;;;;;;;;;5033951;28;20597;-86
2024/01/25 11:37:54;;;;;;;24.40;6.90;;;;;;;;;;5054394;28;20453;-85
2024/01/25 11:40:23;;;;;;;21.83;6.53;;;;;;;;;;5030357;28;20454;-86
2024/01/25 11:42:52;;;;;;;18.57;7.03;;;;;;;;;;5031346;28;20483;-86
2024/01/25 11:45:22;;;;;;;17.57;6.60;;;;;;;;;;5036624;28;20488;-85
2024/01/25 11:47:51;;;;;;;18.17;6.50;;;;;;;;;;5017079;28;20552;-87
2024/01/25 11:50:22;;;;;;;23.93;8.10;;;;;;;;;;5036994;28;20455;-86
2024/01/25 11:52:50;;;;;;;22.80;8.23;;;;;;;;;;5036700;28;20454;-86
2024/01/25 11:55:18;;;;;;;22.73;6.27;;;;;;;;;;5027687;28;20462;-87
2024/01/25 11:57:48;;;;;;;17.10;6.27;;;;;;;;;;5024433;28;20565;-86
2024/01/25 12:00:19;;;;;;;14.40;6.83;;;;;;;;;;5058508;28;20469;-87
2024/01/25 12:02:54;;;;;;;12.53;5.10;;;;;;;;;;5030940;28;20512;-85
2024/01/25 12:05:26;;;;;;;15.30;5.50;;;;;;;;;;5027837;28;20976;-83
2024/01/25 12:07:57;;;;;;;20.70;6.80;;;;;;;;;;5011990;28;20472;-87
2024/01/25 12:10:25;;;;;;;25.00;6.40;;;;;;;;;;5044255;28;20439;-86
2024/01/25 12:12:56;;;;;;;20.10;6.10;;;;;;;;;;5045598;28;20452;-86
2024/01/25 12:15:25;;;;;;;14.50;5.40;;;;;;;;;;5018191;28;20455;-86
2024/01/25 12:17:52;;;;;;;19.33;6.17;;;;;;;;;;5046066;28;20477;-85
2024/01/25 12:20:19;;;;;;;16.30;4.63;;;;;;;;;;5017994;28;20438;-86
2024/01/25 12:22:49;;;;;;;16.20;5.13;;;;;;;;;;5045331;28;20441;-86
2024/01/25 12:25:18;;;;;;;17.50;4.97;;;;;;;;;;5042537;28;20553;-86
2024/01/25 12:27:50;;;;;;;13.90;4.87;;;;;;;;;;5027925;28;20488;-86
2024/01/25 12:30:18;;;;;;;15.07;4.83;;;;;;;;;;5037013;28;20463;-84
2024/01/25 12:32:52;;;;;;;23.03;5.70;;;;;;;;;;5017773;28;20481;-85
2024/01/25 12:35:58;;;;;;;;;;;;;;;;;;;;;
2024/01/25 12:38:41;;;;;;;14.50;5.30;;;;;;;;;;5009869;28;20499;-85
2024/01/25 12:41:08;;;;;;;15.70;4.60;;;;;;;;;;5024104;28;20450;-86
2024/01/25 12:43:35;;;;;;;16.27;4.97;;;;;;;;;;5013956;28;20443;-85
2024/01/25 12:46:06;;;;;;;13.83;4.27;;;;;;;;;;5038446;28;20488;-85
2024/01/25 12:48:44;;;;;;;14.70;5.00;;;;;;;;;;5021306;28;20508;-83
2024/01/25 12:51:14;;;;;;;12.87;4.73;;;;;;;;;;5020117;28;20454;-86
2024/01/25 12:53:44;;;;;;;17.03;4.50;;;;;;;;;;5036876;28;20460;-86
2024/01/25 12:56:14;;;;;;;19.43;4.50;;;;;;;;;;5014886;28;20466;-84
2024/01/25 12:58:41;;;;;;;19.70;4.43;;;;;;;;;;5013650;28;20545;-85
2024/01/25 13:01:09;;;;;;;13.17;4.87;;;;;;;;;;5011558;28;20458;-86
2024/01/25 13:03:38;;;;;;;14.03;4.60;;;;;;;;;;5017016;28;20471;-84
2024/01/25 13:06:09;;;;;;;16.17;4.63;;;;;;;;;;5031571;28;20496;-84
2024/01/25 13:08:36;;;;;;;14.90;5.00;;;;;;;;;;5009125;28;21489;-87
2024/01/25 13:11:03;;;;;;;20.83;5.57;;;;;;;;;;5035527;28;20533;-84
2024/01/25 13:13:31;;;;;;;25.20;5.03;;;;;;;;;;5015186;28;20462;-84
2024/01/25 13:15:58;;;;;;;18.97;6.63;;;;;;;;;;5017199;28;20484;-86
2024/01/25 13:18:28;;;;;;;10.87;5.00;;;;;;;;;;5017649;28;20472;-84
2024/01/25 13:20:57;;;;;;;14.17;4.33;;;;;;;;;;5039527;28;20460;-84
2024/01/25 13:23:24;;;;;;;13.77;4.23;;;;;;;;;;5020498;28;20442;-83
2024/01/25 13:25:51;;;;;;;16.93;5.57;;;;;;;;;;5016179;28;20489;-85
2024/01/25 13:28:19;;;;;;;14.13;4.60;;;;;;;;;;5035673;28;20833;-84
2024/01/25 13:30:53;;;;;;;12.90;4.63;;;;;;;;;;5034462;28;20567;-87
2024/01/25 13:33:21;;;;;;;13.77;5.03;;;;;;;;;;5015652;28;20488;-87
2024/01/25 13:35:49;;;;;;;15.10;4.40;;;;;;;;;;5031800;28;20460;-85
2024/01/25 13:38:19;;;;;;;13.30;4.70;;;;;;;;;;5013114;28;20503;-85
2024/01/25 13:40:49;;;;;;;14.77;4.73;;;;;;;;;;5029988;28;20441;-83
2024/01/25 13:43:16;;;;;;;12.40;5.20;;;;;;;;;;5030327;28;20465;-83
2024/01/25 13:45:48;;;;;;;13.93;4.33;;;;;;;;;;5032914;28;20576;-83
2024/01/25 13:48:17;;;;;;;17.43;4.43;;;;;;;;;;5032075;28;21042;-88
2024/01/25 13:50:45;;;;;;;15.57;5.83;;;;;;;;;;5033169;28;20532;-84
2024/01/25 13:53:12;;;;;;;17.20;5.10;;;;;;;;;;5034384;28;20468;-86
2024/01/25 13:55:40;;;;;;;16.73;7.03;;;;;;;;;;5017518;28;20450;-83
2024/01/25 13:58:08;;;;;;;10.77;4.23;;;;;;;;;;5024873;28;20442;-82
2024/01/25 14:00:37;;;;;;;26.03;5.20;;;;;;;;;;5028065;28;20446;-83
2024/01/25 14:03:04;;;;;;;14.30;4.60;;;;;;;;;;5030797;28;20533;-84
2024/01/25 14:05:32;;;;;;;11.63;4.33;;;;;;;;;;5042784;28;20488;-84
2024/01/25 14:07:59;;;;;;;12.83;5.30;;;;;;;;;;5053418;28;20433;-85
2024/01/25 14:10:27;;;;;;;11.67;4.70;;;;;;;;;;5034903;28;20434;-86
2024/01/25 14:12:55;;;;;;;9.93;4.40;;;;;;;;;;5023303;28;21690;-84
2024/01/25 14:15:22;;;;;;;16.27;4.60;;;;;;;;;;5042086;28;20502;-86
2024/01/25 14:17:51;;;;;;;12.50;5.27;;;;;;;;;;5034227;28;20507;-87
2024/01/25 14:20:18;;;;;;;15.07;4.60;;;;;;;;;;5022252;28;20512;-85
2024/01/25 14:22:45;;;;;;;19.33;4.77;;;;;;;;;;5037788;28;20453;-86
2024/01/25 14:25:13;;;;;;;15.53;4.33;;;;;;;;;;5022212;28;20611;-86
2024/01/25 14:27:40;;;;;;;12.40;4.30;;;;;;;;;;5028732;28;20473;-85
2024/01/25 14:30:08;;;;;;;11.57;4.20;;;;;;;;;;5047864;28;20430;-87
2024/01/25 14:32:41;;;;;;;18.23;5.47;;;;;;;;;;5043853;28;20452;-85
2024/01/25 14:35:08;;;;;;;10.77;4.30;;;;;;;;;;5036512;28;20445;-86
2024/01/25 14:37:37;;;;;;;17.00;3.90;;;;;;;;;;5041992;28;20477;-84
2024/01/25 14:40:05;;;;;;;21.57;7.57;;;;;;;;;;5020348;28;20480;-84
2024/01/25 14:42:41;;;;;;;11.37;4.53;;;;;;;;;;5037649;28;20476;-87
2024/01/25 14:45:18;;;;;;;21.23;4.53;;;;;;;;;;5038178;28;20481;-87
2024/01/25 14:47:49;;;;;;;13.03;4.27;;;;;;;;;;5037954;28;20497;-86
2024/01/25 14:50:16;;;;;;;13.80;4.13;;;;;;;;;;5011119;28;20489;-84